Time;durP1;ratioP1;P1;durP2;ratioP2;P2;SDS_P1;SDS_P2;PMS_P1;PMS_P2;Temp;Humidity;BMP_temperature;BMP_pressure;BME280_temperature;BME280_humidity;BME280_pressure;Samples;Min_cycle;Max_cycle;Signal;HPM_P1;HPM_P2
2023/01/12 00:02:02;;;;;;;;;;;;;;;12.48;nan;101165.03;5022999;28;20330;-33
2023/01/12 00:04:29;;;;;;;;;;;;;;;12.48;nan;101151.59;5025154;28;20373;-33
2023/01/12 00:06:55;;;;;;;;;;;;;;;12.52;nan;101158.91;5018428;28;20379;-33
2023/01/12 00:09:21;;;;;;;;;;;;;;;12.52;nan;101156.22;5022135;28;19924;-33
2023/01/12 00:11:46;;;;;;;;;;;;;;;12.50;nan;101160.22;5022354;28;20456;-35
2023/01/12 00:14:12;;;;;;;;;;;;;;;12.46;nan;101153.72;5024532;28;20375;-33
2023/01/12 00:16:38;;;;;;;;;;;;;;;12.42;nan;101149.91;5026475;28;19917;-32
2023/01/12 00:19:10;;;;;;;;;;;;;;;12.31;nan;101148.97;5025882;28;19921;-34
2023/01/12 00:21:58;;;;;;;;;;;;;;;12.27;nan;101156.72;5020099;28;19929;-33
2023/01/12 00:24:29;;;;;;;;;;;;;;;12.20;nan;101161.44;5022413;28;20004;-35
2023/01/12 00:26:55;;;;;;;;;;;;;;;12.20;nan;101161.44;5021080;28;19943;-35
2023/01/12 00:29:21;;;;;;;;;;;;;;;12.16;nan;101157.63;5028251;28;19917;-32
2023/01/12 00:31:47;;;;;;;;;;;;;;;12.14;nan;101157.06;5023091;28;19931;-34
2023/01/12 00:34:13;;;;;;;;;;;;;;;12.17;nan;101156.56;5020271;28;19917;-33
2023/01/12 00:36:38;;;;;;;;;;;;;;;12.15;nan;101157.88;5028699;28;19971;-33
2023/01/12 00:39:04;;;;;;;;;;;;;;;12.10;nan;101162.13;5026497;28;20344;-33
2023/01/12 00:46:57;;;;;;;;;;;;;;;12.00;nan;101161.16;5021749;28;19932;-33
2023/01/12 00:49:22;;;;;;;;;;;;;;;11.99;nan;101156.84;5023896;28;19918;-33
2023/01/12 00:51:48;;;;;;;;;;;;;;;12.04;nan;101162.31;5020346;28;19921;-32
2023/01/12 00:54:13;;;;;;;;;;;;;;;12.04;nan;101163.13;5020404;28;19921;-35
2023/01/12 00:56:39;;;;;;;;;;;;;;;12.05;nan;101170.13;5023336;28;19917;-33
2023/01/12 00:59:04;;;;;;;;;;;;;;;12.07;nan;101172.56;5028288;28;19925;-35
2023/01/12 01:01:30;;;;;;;;;;;;;;;12.07;nan;101178.75;5017395;28;20148;-35
2023/01/12 01:03:56;;;;;;;;;;;;;;;12.03;nan;101179.50;5022482;28;20535;-32
2023/01/12 01:06:21;;;;;;;;;;;;;;;11.95;nan;101171.84;5025517;28;19925;-35
2023/01/12 01:08:47;;;;;;;;;;;;;;;11.93;nan;101165.91;5017660;28;19925;-32
2023/01/12 01:11:13;;;;;;;;;;;;;;;11.90;nan;101150.31;5029995;28;19917;-34
2023/01/12 01:13:45;;;;;;;;;;;;;;;11.88;nan;101142.50;5027264;28;20040;-35
2023/01/12 01:16:11;;;;;;;;;;;;;;;11.81;nan;101147.22;5013996;28;19980;-32
2023/01/12 01:18:37;;;;;;;;;;;;;;;11.75;nan;101129.38;5023627;28;20028;-33
2023/01/12 01:21:02;;;;;;;;;;;;;;;11.72;nan;101125.31;5028198;28;20439;-34
2023/01/12 01:23:28;;;;;;;;;;;;;;;11.68;nan;101116.13;5019225;28;19917;-33
2023/01/12 01:25:54;;;;;;;;;;;;;;;11.66;nan;101123.59;5020944;28;20013;-32
2023/01/12 01:28:20;;;;;;;;;;;;;;;11.71;nan;101129.06;5022138;28;19920;-33
2023/01/12 01:30:45;;;;;;;;;;;;;;;11.71;nan;101131.75;5023296;28;20472;-32
2023/01/12 01:33:12;;;;;;;;;;;;;;;11.69;nan;101147.28;5024936;28;19929;-33
2023/01/12 01:35:37;;;;;;;;;;;;;;;11.67;nan;101146.72;5025245;28;19924;-34
2023/01/12 01:38:04;;;;;;;;;;;;;;;11.61;nan;101147.69;5027995;28;19925;-32
2023/01/12 01:40:29;;;;;;;;;;;;;;;11.51;nan;101142.19;5021261;28;20000;-33
2023/01/12 01:42:54;;;;;;;;;;;;;;;11.50;nan;101143.25;5023144;28;20396;-33
2023/01/12 01:45:20;;;;;;;;;;;;;;;11.50;nan;101140.56;5027070;28;19971;-33
2023/01/12 01:47:48;;;;;;;;;;;;;;;11.49;nan;101133.56;5028108;28;19967;-33
2023/01/12 01:50:17;;;;;;;;;;;;;;;11.46;nan;101124.09;5023406;28;19921;-36
2023/01/12 01:52:44;;;;;;;;;;;;;;;11.47;nan;101124.91;5024977;28;19924;-33
2023/01/12 01:55:21;;;;;;;;;;;;;;;11.37;nan;101122.09;5028165;28;20004;-33
2023/01/12 01:57:50;;;;;;;;;;;;;;;11.33;nan;101129.00;5044579;22;19924;-36
2023/01/12 02:00:15;;;;;;;;;;;;;;;11.33;nan;101110.22;5043932;28;19924;-34
2023/01/12 02:02:42;;;;;;;;;;;;;;;11.37;nan;101108.69;5038078;28;19925;-34
2023/01/12 02:05:08;;;;;;;;;;;;;;;11.40;nan;101113.56;5043370;28;19927;-35
2023/01/12 02:07:34;;;;;;;;;;;;;;;11.41;nan;101105.25;5042971;28;19921;-35
2023/01/12 02:10:00;;;;;;;;;;;;;;;11.43;nan;101088.91;5044973;28;19917;-35
2023/01/12 02:18:09;;;;;;;;;;;;;;;11.45;nan;101094.84;5044005;28;19982;-34
2023/01/12 02:20:34;;;;;;;;;;;;;;;11.46;nan;101099.16;5044471;28;20294;-36
2023/01/12 02:23:18;;;;;;;;;;;;;;;11.47;nan;101090.03;5038883;28;19928;-34
2023/01/12 02:26:02;;;;;;;;;;;;;;;11.44;nan;101090.53;5038680;28;20374;-35
2023/01/12 02:28:41;;;;;;;;;;;;;;;11.42;nan;101082.72;5044428;28;20007;-36
2023/01/12 02:31:13;;;;;;;;;;;;;;;11.45;nan;101078.75;5047754;28;19975;-35
2023/01/12 02:34:11;;;;;;;;;;;;;;;11.48;nan;101083.59;5046979;28;19948;-34
2023/01/12 02:36:43;;;;;;;;;;;;;;;11.47;nan;101076.63;5019389;28;19948;-35
2023/01/12 02:39:17;;;;;;;;;;;;;;;11.49;nan;101072.66;5043331;28;19928;-34
2023/01/12 02:44:38;;;;;;;;;;;;;;;11.54;nan;101082.66;5043129;28;19986;-36
2023/01/12 02:47:05;;;;;;;;;;;;;;;11.49;nan;101093.31;5043623;28;19924;-34
2023/01/12 02:49:36;;;;;;;;;;;;;;;11.46;nan;101085.72;5046637;28;19945;-36
2023/01/12 02:52:06;;;;;;;;;;;;;;;11.45;nan;101079.56;5047929;28;19959;-35
2023/01/12 02:54:33;;;;;;;;;;;;;;;11.43;nan;101088.91;5046853;28;19917;-35
2023/01/12 02:57:07;;;;;;;;;;;;;;;11.49;nan;101087.94;5043452;28;20382;-34
2023/01/12 02:59:33;;;;;;;;;;;;;;;11.45;nan;101076.06;5042543;28;19917;-34
2023/01/12 03:02:19;;;;;;;;;;;;;;;11.46;nan;101072.31;5036978;28;19932;-35
2023/01/12 03:04:44;;;;;;;;;;;;;;;11.48;nan;101078.25;5036896;28;19917;-34
2023/01/12 03:07:13;;;;;;;;;;;;;;;11.50;nan;101084.19;5038977;28;19917;-34
2023/01/12 03:09:42;;;;;;;;;;;;;;;11.51;nan;101080.47;5042149;28;19921;-36
2023/01/12 03:12:11;;;;;;;;;;;;;;;11.55;nan;101073.53;5048980;28;19917;-34
2023/01/12 03:14:39;;;;;;;;;;;;;;;11.58;nan;101072.22;5047150;28;20416;-34
2023/01/12 03:17:08;;;;;;;;;;;;;;;11.58;nan;101062.31;5038912;28;20370;-34
2023/01/12 03:19:34;;;;;;;;;;;;;;;11.61;nan;101061.81;5036727;28;19939;-35
2023/01/12 03:22:03;;;;;;;;;;;;;;;11.64;nan;101068.53;5042047;28;19929;-34
2023/01/12 03:24:31;;;;;;;;;;;;;;;11.64;nan;101066.66;5039038;28;19920;-34
2023/01/12 03:27:03;;;;;;;;;;;;;;;11.62;nan;101062.63;5036788;28;20219;-35
2023/01/12 03:29:30;;;;;;;;;;;;;;;11.61;nan;101061.81;5038776;28;20278;-35
2023/01/12 03:31:56;;;;;;;;;;;;;;;11.66;nan;101064.56;5042381;28;19925;-34
2023/01/12 03:34:21;;;;;;;;;;;;;;;11.67;nan;101057.31;5043382;28;19926;-34
2023/01/12 03:36:58;;;;;;;;;;;;;;;11.70;nan;101070.25;5042276;28;20394;-35
2023/01/12 03:39:26;;;;;;;;;;;;;;;11.70;nan;101065.69;5042662;28;20337;-34
2023/01/12 03:41:58;;;;;;;;;;;;;;;11.76;nan;101072.75;5041667;28;19964;-34
2023/01/12 03:44:32;;;;;;;;;;;;;;;11.79;nan;101074.16;5042488;28;19920;-36
2023/01/12 03:47:00;;;;;;;;;;;;;;;11.79;nan;101071.47;5045656;28;19920;-35
2023/01/12 03:49:35;;;;;;;;;;;;;;;11.86;nan;101079.38;5047799;28;20366;-35
2023/01/12 03:52:01;;;;;;;;;;;;;;;11.81;nan;101069.34;5044857;28;19960;-35
2023/01/12 03:54:28;;;;;;;;;;;;;;;11.82;nan;101072.84;5040683;28;20020;-35
2023/01/12 03:56:53;;;;;;;;;;;;;;;11.80;nan;101070.41;5044742;28;20295;-35
2023/01/12 03:59:19;;;;;;;;;;;;;;;11.85;nan;101048.19;5040135;28;19917;-34
2023/01/12 04:01:46;;;;;;;;;;;;;;;11.84;nan;101039.31;5046544;28;19968;-35
2023/01/12 04:04:12;;;;;;;;;;;;;;;11.84;nan;101033.13;5041943;28;19976;-34
2023/01/12 04:06:37;;;;;;;;;;;;;;;11.81;nan;101039.81;5043180;28;19943;-34
2023/01/12 04:09:02;;;;;;;;;;;;;;;11.85;nan;101030.22;5045792;28;20554;-34
2023/01/12 04:14:12;;;;;;;;;;;;;;;11.83;nan;101023.47;5045279;28;20373;-36
2023/01/12 04:16:37;;;;;;;;;;;;;;;11.89;nan;101025.16;5045863;28;19920;-35
2023/01/12 04:19:02;;;;;;;;;;;;;;;11.86;nan;101014.94;5046676;28;20012;-34
2023/01/12 04:24:12;;;;;;;;;;;;;;;11.78;nan;101003.56;5048010;28;20385;-35
2023/01/12 04:26:37;;;;;;;;;;;;;;;11.79;nan;101007.84;5038862;28;20073;-36
2023/01/12 04:29:02;;;;;;;;;;;;;;;11.85;nan;101013.28;5042915;28;19993;-36
2023/01/12 04:31:28;;;;;;;;;;;;;;;11.83;nan;101007.34;5047263;28;20017;-34
2023/01/12 04:33:53;;;;;;;;;;;;;;;11.80;nan;101011.34;5043694;28;19928;-35
2023/01/12 04:36:18;;;;;;;;;;;;;;;11.77;nan;101007.25;5041286;28;19920;-34
2023/01/12 04:38:43;;;;;;;;;;;;;;;11.77;nan;101001.91;5039937;28;19917;-36
2023/01/12 04:41:09;;;;;;;;;;;;;;;11.74;nan;100997.03;5047145;28;19921;-35
2023/01/12 04:43:35;;;;;;;;;;;;;;;11.79;nan;100997.13;5045963;28;20487;-34
2023/01/12 04:46:08;;;;;;;;;;;;;;;11.78;nan;101002.72;5037729;28;20008;-35
2023/01/12 04:48:34;;;;;;;;;;;;;;;11.73;nan;100994.59;5037960;28;20202;-35
2023/01/12 04:51:00;;;;;;;;;;;;;;;11.73;nan;100989.22;5037205;28;20396;-35
2023/01/12 04:53:25;;;;;;;;;;;;;;;11.71;nan;100983.31;5042180;28;19941;-35
2023/01/12 04:55:50;;;;;;;;;;;;;;;11.68;nan;100990.00;5037103;28;19974;-35
2023/01/12 04:58:16;;;;;;;;;;;;;;;11.69;nan;100982.75;5036078;28;19928;-35
2023/01/12 05:00:41;;;;;;;;;;;;;;;11.69;nan;100980.88;5039504;28;19925;-35
2023/01/12 05:11:58;;;;;;;;;;;;;;;11.69;nan;100961.28;5035674;28;19987;-35
2023/01/12 05:14:25;;;;;;;;;;;;;;;11.72;nan;100975.00;5042714;28;20012;-35
2023/01/12 05:16:50;;;;;;;;;;;;;;;11.70;nan;100985.19;5041115;28;19924;-34
2023/01/12 05:19:15;;;;;;;;;;;;;;;11.67;nan;100984.84;5042683;28;20351;-34
2023/01/12 05:21:41;;;;;;;;;;;;;;;11.69;nan;100977.38;5037161;28;19921;-35
2023/01/12 05:24:07;;;;;;;;;;;;;;;11.68;nan;100981.94;5035046;28;19925;-35
2023/01/12 05:26:32;;;;;;;;;;;;;;;11.69;nan;100975.50;5040117;28;19991;-36
2023/01/12 05:28:57;;;;;;;;;;;;;;;11.71;nan;100992.16;5037196;28;20003;-34
2023/01/12 05:31:23;;;;;;;;;;;;;;;11.74;nan;100974.75;5041839;28;19952;-34
2023/01/12 05:33:48;;;;;;;;;;;;;;;11.80;nan;100979.94;5037627;28;19955;-35
2023/01/12 05:36:15;;;;;;;;;;;;;;;11.85;nan;100983.75;5038563;28;19956;-34
2023/01/12 05:38:40;;;;;;;;;;;;;;;11.87;nan;100981.66;5039608;28;19923;-37
2023/01/12 05:41:06;;;;;;;;;;;;;;;11.90;nan;100983.84;5040890;28;19925;-34
2023/01/12 05:43:50;;;;;;;;;;;;;;;11.93;nan;100973.41;5039020;28;19952;-36
2023/01/12 05:46:18;;;;;;;;;;;;;;;11.89;nan;100977.66;5036313;28;20056;-34
2023/01/12 05:48:43;;;;;;;;;;;;;;;11.93;nan;100978.75;5041468;28;20284;-36
2023/01/12 05:51:10;;;;;;;;;;;;;;;11.95;nan;100975.81;5041665;28;19921;-35
2023/01/12 05:53:35;;;;;;;;;;;;;;;11.95;nan;100970.47;5038089;28;19916;-35
2023/01/12 05:56:08;;;;;;;;;;;;;;;11.96;nan;100977.44;5036388;28;19932;-34
2023/01/12 05:58:33;;;;;;;;;;;;;;;11.99;nan;100968.88;5038694;28;19952;-34
2023/01/12 06:00:59;;;;;;;;;;;;;;;11.98;nan;100969.94;5039068;28;19956;-34
2023/01/12 06:03:24;;;;;;;;;;;;;;;11.99;nan;100982.31;5040926;28;20319;-34
2023/01/12 06:05:53;;;;;;;;;;;;;;;12.02;nan;100966.50;5038191;28;20289;-34
2023/01/12 06:08:18;;;;;;;;;;;;;;;12.00;nan;100965.13;5037088;28;19921;-35
2023/01/12 06:10:44;;;;;;;;;;;;;;;12.05;nan;100960.66;5040214;28;19923;-36
2023/01/12 06:15:58;;;;;;;;;;;;;;;11.97;nan;100953.03;5037926;28;19927;-34
2023/01/12 06:18:23;;;;;;;;;;;;;;;11.97;nan;100957.59;5040218;28;19963;-35
2023/01/12 06:20:49;;;;;;;;;;;;;;;12.03;nan;100945.84;5040821;28;19956;-35
2023/01/12 06:23:14;;;;;;;;;;;;;;;12.06;nan;100967.63;5042189;28;19925;-35
2023/01/12 06:25:40;;;;;;;;;;;;;;;12.03;nan;100951.22;5039312;28;19917;-34
2023/01/12 06:28:05;;;;;;;;;;;;;;;12.07;nan;100969.25;5041543;28;19991;-35
2023/01/12 06:30:30;;;;;;;;;;;;;;;12.07;nan;100953.16;5037775;28;20912;-36
2023/01/12 06:32:59;;;;;;;;;;;;;;;12.15;nan;100937.63;5041073;28;19931;-34
2023/01/12 06:35:25;;;;;;;;;;;;;;;12.06;nan;100934.59;5040561;28;19923;-35
2023/01/12 06:37:54;;;;;;;;;;;;;;;12.12;nan;100944.31;5042217;28;19924;-36
2023/01/12 06:40:19;;;;;;;;;;;;;;;12.19;nan;100944.91;5038459;28;19962;-36
2023/01/12 06:42:44;;;;;;;;;;;;;;;12.22;nan;100919.44;5033891;28;19925;-35
2023/01/12 06:45:11;;;;;;;;;;;;;;;12.22;nan;100935.56;5043678;28;19929;-35
2023/01/12 06:47:43;;;;;;;;;;;;;;;12.25;nan;100927.81;5040122;28;20344;-34
2023/01/12 06:50:08;;;;;;;;;;;;;;;12.28;nan;100935.34;5042854;28;19929;-36
2023/01/12 06:52:34;;;;;;;;;;;;;;;12.31;nan;100940.22;5035035;28;19924;-35
2023/01/12 06:54:59;;;;;;;;;;;;;;;12.31;nan;100939.41;5039554;28;19949;-35
2023/01/12 06:57:24;;;;;;;;;;;;;;;12.35;nan;100953.94;5037047;28;19970;-35
2023/01/12 06:59:50;;;;;;;;;;;;;;;12.29;nan;100950.41;5038908;28;19925;-36
2023/01/12 07:02:15;;;;;;;;;;;;;;;12.31;nan;100942.91;5044807;28;19920;-35
2023/01/12 07:04:41;;;;;;;;;;;;;;;12.32;nan;100944.53;5044262;28;19917;-35
2023/01/12 07:07:07;;;;;;;;;;;;;;;12.31;nan;100940.22;5037339;28;19993;-34
2023/01/12 07:09:32;;;;;;;;;;;;;;;12.35;nan;100932.44;5041333;28;19924;-35
2023/01/12 07:11:58;;;;;;;;;;;;;;;12.39;nan;100930.91;5039078;28;19916;-35
2023/01/12 07:14:23;;;;;;;;;;;;;;;12.43;nan;100940.06;5048814;28;19962;-35
2023/01/12 07:16:48;;;;;;;;;;;;;;;12.47;nan;100922.34;5042702;28;19952;-36
2023/01/12 07:19:14;;;;;;;;;;;;;;;12.53;nan;100933.94;5048022;28;20054;-35
2023/01/12 07:21:39;;;;;;;;;;;;;;;12.56;nan;100918.09;5043973;28;19928;-35
2023/01/12 07:24:05;;;;;;;;;;;;;;;12.52;nan;100918.88;5046120;28;19928;-35
2023/01/12 07:26:30;;;;;;;;;;;;;;;12.55;nan;100919.19;5047724;28;19990;-36
2023/01/12 07:28:55;;;;;;;;;;;;;;;12.59;nan;100914.94;5037093;28;19927;-35
2023/01/12 07:31:21;;;;;;;;;;;;;;;12.58;nan;100916.00;5049597;28;20152;-35
2023/01/12 07:33:46;;;;;;;;;;;;;;;12.52;nan;100917.00;5047336;28;19924;-36
2023/01/12 07:36:12;;;;;;;;;;;;;;;12.56;nan;100906.56;5044969;28;20032;-35
2023/01/12 07:38:37;;;;;;;;;;;;;;;12.54;nan;100911.38;5047990;28;20564;-34
2023/01/12 07:41:03;;;;;;;;;;;;;;;12.55;nan;100897.69;5041782;28;20196;-34
2023/01/12 07:43:29;;;;;;;;;;;;;;;12.60;nan;100896.94;5039584;28;19927;-34
2023/01/12 07:45:55;;;;;;;;;;;;;;;12.57;nan;100898.25;5045327;28;19959;-36
2023/01/12 07:48:21;;;;;;;;;;;;;;;12.64;nan;100898.84;5039318;28;19917;-35
2023/01/12 07:50:47;;;;;;;;;;;;;;;12.65;nan;100894.28;5044617;28;20044;-34
2023/01/12 07:53:12;;;;;;;;;;;;;;;12.61;nan;100902.03;5042670;28;19920;-34
2023/01/12 07:55:38;;;;;;;;;;;;;;;12.65;nan;100910.41;5043278;28;19917;-35
2023/01/12 07:58:05;;;;;;;;;;;;;;;12.63;nan;100896.41;5061612;22;20019;-34
2023/01/12 08:00:30;;;;;;;;;;;;;;;12.59;nan;100900.69;5042100;28;20093;-34
2023/01/12 08:03:02;;;;;;;;;;;;;;;12.61;nan;100887.78;5047329;28;19928;-33
2023/01/12 08:05:27;;;;;;;;;;;;;;;12.61;nan;100893.97;5044563;28;19971;-33
2023/01/12 08:07:53;;;;;;;;;;;;;;;12.59;nan;100890.75;5048108;28;19960;-34
2023/01/12 08:10:18;;;;;;;;;;;;;;;12.65;nan;100888.91;5050619;28;19921;-33
2023/01/12 08:12:43;;;;;;;;;;;;;;;12.66;nan;100890.50;5050201;28;20096;-34
2023/01/12 08:15:09;;;;;;;;;;;;;;;12.63;nan;100877.59;5049938;28;20015;-33
2023/01/12 08:18:01;;;;;;;;;;;;;;;12.69;nan;100879.25;5044965;28;19917;-34
2023/01/12 08:20:31;;;;;;;;;;;;;;;12.72;nan;100878.72;5050462;28;19917;-33
2023/01/12 08:22:59;;;;;;;;;;;;;;;12.76;nan;100876.34;5043849;28;19943;-33
2023/01/12 08:25:29;;;;;;;;;;;;;;;12.77;nan;100870.69;5041689;28;19943;-33
2023/01/12 08:27:56;;;;;;;;;;;;;;;12.85;nan;100880.97;5047050;28;19916;-33
2023/01/12 08:30:23;;;;;;;;;;;;;;;12.87;nan;100870.75;5049997;28;20015;-33
2023/01/12 08:32:48;;;;;;;;;;;;;;;12.97;nan;100876.19;5050105;28;19917;-33
2023/01/12 08:35:15;;;;;;;;;;;;;;;13.07;nan;100877.31;5047751;28;20305;-33
2023/01/12 08:37:41;;;;;;;;;;;;;;;13.04;nan;100870.56;5047091;28;19923;-33
2023/01/12 08:40:07;;;;;;;;;;;;;;;13.04;nan;100867.88;5038306;28;19920;-33
2023/01/12 08:42:32;;;;;;;;;;;;;;;13.07;nan;100869.25;5045791;28;19920;-33
2023/01/12 08:44:58;;;;;;;;;;;;;;;13.18;nan;100870.94;5039922;28;20378;-33
2023/01/12 08:47:29;;;;;;;;;;;;;;;13.19;nan;100864.50;5045851;28;20035;-33
2023/01/12 08:49:54;;;;;;;;;;;;;;;13.19;nan;100872.56;5050115;28;20275;-33
2023/01/12 08:52:20;;;;;;;;;;;;;;;13.24;nan;100857.25;5045585;28;19943;-33
2023/01/12 08:54:45;;;;;;;;;;;;;;;13.26;nan;100852.41;5050715;28;20140;-33
2023/01/12 08:57:11;;;;;;;;;;;;;;;13.35;nan;100865.38;5044281;28;19931;-33
2023/01/12 08:59:36;;;;;;;;;;;;;;;13.36;nan;100851.66;5040342;28;19917;-34
2023/01/12 09:02:02;;;;;;;;;;;;;;;13.34;nan;100848.41;5043859;28;20409;-33
2023/01/12 09:04:28;;;;;;;;;;;;;;;13.42;nan;100845.19;5040718;28;19964;-34
2023/01/12 09:06:53;;;;;;;;;;;;;;;13.45;nan;100843.84;5047816;28;19971;-34
2023/01/12 09:09:18;;;;;;;;;;;;;;;13.47;nan;100847.13;5042193;28;20112;-34
2023/01/12 09:11:44;;;;;;;;;;;;;;;13.48;nan;100838.78;5047321;28;19921;-34
2023/01/12 09:14:10;;;;;;;;;;;;;;;13.53;nan;100829.91;5044464;28;20448;-34
2023/01/12 09:16:36;;;;;;;;;;;;;;;13.53;nan;100830.72;5044479;28;19970;-34
2023/01/12 09:19:01;;;;;;;;;;;;;;;13.53;nan;100829.91;5048316;28;20232;-34
2023/01/12 09:21:27;;;;;;;;;;;;;;;13.56;nan;100824.78;5050098;28;19921;-34
2023/01/12 09:23:53;;;;;;;;;;;;;;;13.66;nan;100832.09;5049219;28;19920;-34
2023/01/12 09:26:20;;;;;;;;;;;;;;;13.59;nan;100821.56;5050451;28;20394;-34
2023/01/12 09:28:46;;;;;;;;;;;;;;;13.62;nan;100817.53;5049216;28;19927;-33
2023/01/12 09:31:13;;;;;;;;;;;;;;;13.64;nan;100815.38;5049952;28;19924;-33
2023/01/12 09:33:39;;;;;;;;;;;;;;;13.69;nan;100807.31;5048312;28;19917;-34
2023/01/12 09:36:06;;;;;;;;;;;;;;;13.70;nan;100800.06;5042201;28;19916;-34
2023/01/12 09:38:34;;;;;;;;;;;;;;;13.74;nan;100803.81;5049005;28;20293;-33
2023/01/12 09:41:01;;;;;;;;;;;;;;;13.75;nan;100805.44;5043667;28;19917;-34
2023/01/12 09:49:00;;;;;;;;;;;;;;;13.83;nan;100775.31;5048138;28;19936;-34
2023/01/12 09:51:38;;;;;;;;;;;;;;;13.87;nan;100779.06;5048633;28;20396;-33
2023/01/12 09:54:04;;;;;;;;;;;;;;;13.91;nan;100767.47;5048606;28;19921;-33
2023/01/12 09:56:53;;;;;;;;;;;;;;;13.90;nan;100770.44;5035394;28;19917;-33
2023/01/12 09:59:32;;;;;;;;;;;;;;;13.91;nan;100769.38;5048586;28;19928;-33
2023/01/12 10:01:57;;;;;;;;;;;;;;;13.84;nan;100766.94;5048474;28;19936;-33
2023/01/12 10:04:24;;;;;;;;;;;;;;;13.95;nan;100766.94;5043811;28;19916;-34
2023/01/12 10:06:49;;;;;;;;;;;;;;;13.98;nan;100756.44;5049596;28;19917;-34
2023/01/12 10:09:17;;;;;;;;;;;;;;;13.96;nan;100750.50;5043879;28;19917;-34
2023/01/12 10:11:42;;;;;;;;;;;;;;;13.93;nan;100747.53;5043542;28;19917;-34
2023/01/12 10:14:12;;;;;;;;;;;;;;;13.96;nan;100745.13;5048309;28;19924;-34
2023/01/12 10:16:56;;;;;;;;;;;;;;;13.97;nan;100744.03;5043178;28;20016;-34
2023/01/12 10:19:21;;;;;;;;;;;;;;;13.98;nan;100731.38;5038613;28;20372;-34
2023/01/12 10:21:47;;;;;;;;;;;;;;;14.05;nan;100734.63;5044136;28;20095;-34
2023/01/12 10:24:13;;;;;;;;;;;;;;;14.01;nan;100744.31;5043677;28;19959;-34
2023/01/12 10:26:42;;;;;;;;;;;;;;;14.09;nan;100735.69;5043942;28;20006;-33
2023/01/12 10:29:10;;;;;;;;;;;;;;;14.05;nan;100731.94;5042471;28;19967;-33
2023/01/12 10:31:35;;;;;;;;;;;;;;;14.08;nan;100723.28;5043166;28;19916;-33
2023/01/12 10:34:00;;;;;;;;;;;;;;;14.11;nan;100704.69;5042059;28;19931;-34
2023/01/12 10:36:26;;;;;;;;;;;;;;;14.10;nan;100704.97;5039106;28;20247;-33
2023/01/12 10:38:51;;;;;;;;;;;;;;;14.12;nan;100697.41;5048270;28;19927;-34
2023/01/12 10:41:18;;;;;;;;;;;;;;;14.05;nan;100688.81;5048871;28;19928;-34
2023/01/12 10:44:04;;;;;;;;;;;;;;;14.09;nan;100696.06;5048141;28;19959;-33
2023/01/12 10:46:31;;;;;;;;;;;;;;;14.10;nan;100700.38;5041185;28;19927;-33
2023/01/12 10:49:15;;;;;;;;;;;;;;;14.05;nan;100695.00;5045465;28;20343;-33
2023/01/12 10:51:52;;;;;;;;;;;;;;;14.09;nan;100688.00;5046773;28;19917;-33
2023/01/12 10:54:19;;;;;;;;;;;;;;;14.05;nan;100669.97;5052071;28;19925;-34
2023/01/12 10:57:08;;;;;;;;;;;;;;;14.13;nan;100680.97;5045754;28;19917;-33
2023/01/12 10:59:36;;;;;;;;;;;;;;;14.10;nan;100672.63;5035263;28;19917;-33
2023/01/12 11:02:03;;;;;;;;;;;;;;;14.16;nan;100663.44;5046529;28;20215;-33
2023/01/12 11:04:29;;;;;;;;;;;;;;;14.18;nan;100664.81;5048138;28;20047;-33
2023/01/12 11:06:58;;;;;;;;;;;;;;;14.21;nan;100653.50;5040817;28;20416;-33
2023/01/12 11:09:25;;;;;;;;;;;;;;;14.17;nan;100636.22;5049867;28;19928;-33
2023/01/12 11:11:55;;;;;;;;;;;;;;;14.25;nan;100653.75;5048843;28;19921;-33
2023/01/12 11:14:47;;;;;;;;;;;;;;;14.29;nan;100641.31;5049072;28;19924;-33
2023/01/12 11:17:30;;;;;;;;;;;;;;;14.32;nan;100648.03;5024225;28;19959;-33
2023/01/12 11:19:56;;;;;;;;;;;;;;;14.29;nan;100630.53;5051093;28;19917;-33
2023/01/12 11:22:26;;;;;;;;;;;;;;;14.30;nan;100620.56;5039893;28;19929;-33
2023/01/12 11:25:21;;;;;;;;;;;;;;;14.38;nan;100620.00;5047553;28;20992;-33
2023/01/12 11:27:54;;;;;;;;;;;;;;;14.40;nan;100615.16;5029191;28;19942;-33
2023/01/12 11:30:35;;;;;;;;;;;;;;;14.46;nan;100622.16;5050306;28;19920;-33
2023/01/12 11:33:07;;;;;;;;;;;;;;;14.42;nan;100612.97;5040609;28;20394;-33
2023/01/12 11:35:36;;;;;;;;;;;;;;;14.48;nan;100615.41;5042426;28;19923;-33
2023/01/12 11:38:09;;;;;;;;;;;;;;;14.43;nan;100603.81;5051312;28;19916;-34
2023/01/12 11:40:39;;;;;;;;;;;;;;;14.51;nan;100617.53;5044785;28;19951;-34
2023/01/12 11:46:13;;;;;;;;;;;;;;;14.50;nan;100585.47;5050956;28;19936;-33
2023/01/12 11:48:44;;;;;;;;;;;;;;;14.54;nan;100593.78;5040951;28;20059;-34
2023/01/12 11:51:12;;;;;;;;;;;;;;;14.61;nan;100591.63;5051214;28;19924;-33
2023/01/12 11:53:39;;;;;;;;;;;;;;;14.70;nan;100590.72;5050846;28;19917;-34
2023/01/12 11:56:07;;;;;;;;;;;;;;;14.78;nan;100579.38;5046667;28;20175;-33
2023/01/12 11:58:50;;;;;;;;;;;;;;;14.83;nan;100578.53;5042763;28;20336;-34
2023/01/12 12:01:25;;;;;;;;;;;;;;;14.84;nan;100580.13;5044617;28;19942;-34
2023/01/12 12:03:50;;;;;;;;;;;;;;;14.84;nan;100580.13;5039224;28;19927;-33
2023/01/12 12:06:20;;;;;;;;;;;;;;;14.93;nan;100583.06;5040551;28;19917;-33
2023/01/12 12:09:05;;;;;;;;;;;;;;;14.85;nan;100559.38;5045423;28;19916;-33
2023/01/12 12:11:48;;;;;;;;;;;;;;;14.88;nan;100561.50;5045482;28;19947;-33
2023/01/12 12:14:38;;;;;;;;;;;;;;;14.89;nan;100549.63;5046274;28;19917;-34
2023/01/12 12:17:15;;;;;;;;;;;;;;;14.80;nan;100552.94;5040486;28;19966;-34
2023/01/12 12:19:59;;;;;;;;;;;;;;;14.88;nan;100554.19;5041528;28;19917;-34
2023/01/12 12:22:27;;;;;;;;;;;;;;;14.77;nan;100561.59;5040330;28;20267;-34
2023/01/12 12:25:09;;;;;;;;;;;;;;;14.71;nan;100551.91;5040340;28;19917;-33
2023/01/12 12:27:39;;;;;;;;;;;;;;;14.68;nan;100538.16;5045576;28;19920;-33
2023/01/12 12:30:04;;;;;;;;;;;;;;;14.67;nan;100583.22;5040376;28;20440;-34
2023/01/12 12:32:29;;;;;;;;;;;;;;;14.62;nan;100553.59;5042646;28;19917;-33
2023/01/12 12:35:04;;;;;;;;;;;;;;;14.57;nan;100552.81;5039275;28;19991;-33
2023/01/12 12:37:30;;;;;;;;;;;;;;;14.50;nan;100562.00;5039694;28;20011;-34
2023/01/12 12:39:56;;;;;;;;;;;;;;;14.55;nan;100566.59;5038829;28;20008;-33
2023/01/12 12:45:24;;;;;;;;;;;;;;;14.54;nan;100564.13;5040612;28;19962;-34
2023/01/12 12:47:58;;;;;;;;;;;;;;;14.55;nan;100550.41;5034040;28;19961;-34
2023/01/12 12:50:56;;;;;;;;;;;;;;;14.62;nan;100553.59;5044058;28;19947;-34
2023/01/12 12:53:24;;;;;;;;;;;;;;;14.62;nan;100539.31;5019380;28;20398;-34
2023/01/12 12:55:50;;;;;;;;;;;;;;;14.58;nan;100536.38;5040050;28;19917;-34
2023/01/12 12:58:21;;;;;;;;;;;;;;;14.52;nan;100538.25;5042944;28;19947;-34
2023/01/12 13:00:48;;;;;;;;;;;;;;;14.47;nan;100538.31;5037561;28;20007;-33
2023/01/12 13:03:52;;;;;;;;;;;;;;;14.44;nan;100529.97;5037952;28;19925;-33
2023/01/12 13:06:17;;;;;;;;;;;;;;;14.47;nan;100530.22;5003940;28;19998;-34
2023/01/12 13:08:44;;;;;;;;;;;;;;;14.50;nan;100521.56;5004435;28;19928;-34
2023/01/12 13:11:09;;;;;;;;;;;;;;;14.56;nan;100508.88;5019291;28;19974;-34
2023/01/12 13:13:36;;;;;;;;;;;;;;;14.58;nan;100509.41;5039902;28;19917;-33
2023/01/12 13:16:21;;;;;;;;;;;;;;;14.59;nan;100494.84;5045117;28;19920;-33
2023/01/12 13:18:47;;;;;;;;;;;;;;;14.59;nan;100505.63;5025057;28;20019;-34
2023/01/12 13:21:30;;;;;;;;;;;;;;;14.58;nan;100495.94;5035606;28;20003;-33
2023/01/12 13:24:09;;;;;;;;;;;;;;;14.59;nan;100535.28;5033909;28;19925;-34
2023/01/12 13:26:34;;;;;;;;;;;;;;;14.60;nan;100509.13;5041290;28;20016;-33
2023/01/12 13:29:18;;;;;;;;;;;;;;;14.64;nan;100496.69;5032216;28;20004;-33
2023/01/12 13:31:44;;;;;;;;;;;;;;;14.60;nan;100493.75;5041034;28;19925;-33
2023/01/12 13:34:28;;;;;;;;;;;;;;;14.63;nan;100497.78;5036655;28;19921;-34
2023/01/12 13:37:08;;;;;;;;;;;;;;;14.59;nan;100505.63;5039001;28;20413;-33
2023/01/12 13:39:36;;;;;;;;;;;;;;;14.64;nan;100508.28;5045627;28;19920;-34
2023/01/12 13:44:47;;;;;;;;;;;;;;;14.58;nan;100501.31;5039871;28;19974;-34
2023/01/12 13:47:19;;;;;;;;;;;;;;;14.65;nan;100517.16;5041959;28;20226;-33
2023/01/12 13:49:46;;;;;;;;;;;;;;;14.62;nan;100506.94;5039802;28;19921;-34
2023/01/12 13:52:21;;;;;;;;;;;;;;;14.71;nan;100503.34;5039885;28;19921;-34